Duke, Missouri
Current Conditions -  °F | °C
As of 9:03 AM on Saturday 20 Dec 2014 (Local Time) from KTBN Reporting Station
Overcast Overcast  
Wind Chill: 32°   Ceiling: 1800
Heat Index: 36°   Visibility: 10mi
Dew Point: 36°   Wind: 5mph
Humidity: 100%   Direction: 180°S
Pressure: 30.23"   Gusts: NA
Location:  37.66°N, 92.01°W
Report Text: KTBN 201503Z AUTO 18004KT 10SM SCT006 OVC018 02/02 A3023 RMK AO2 CIG 006V018
Loading
Personal Weather Stations






























Interactive Weather Map New forecast layout! Learn more

10-Day Weather Forecast

Advertisements
Track Severe Weather on mobile